Terminal Aerodrome Forecast
Issued by NWS North Platte, NE

Home | Current Version | Previous Version | Text Only | Print | Product List | Glossary On
Versions: 1 2 3 4 5 6 7 8 9 10 11 12 13 14
849
FTUS43 KLBF 071131
TAFLBF
TAF
KLBF 071131Z 0712/0812 31015KT P6SM OVC080
     FM071700 30016G23KT P6SM SCT080 SCT250
     FM071800 30028G39KT P6SM FEW250
     FM080100 31018G26KT P6SM SKC=

USA.gov is the U.S. government's official web portal to all federal, state and local government web resources and services.